createdAt,value
2022-12-31T00:01:36.659Z,3.97
2022-12-31T00:04:57.967Z,3.40
2022-12-31T00:08:19.674Z,3.30
2022-12-31T00:11:41.529Z,3.63
2022-12-31T00:15:04.396Z,3.40
2022-12-31T00:18:26.962Z,4.57
2022-12-31T00:21:48.822Z,2.87
2022-12-31T00:25:11.247Z,2.07
2022-12-31T00:28:33.277Z,2.67
2022-12-31T00:31:56.124Z,2.13
2022-12-31T00:35:18.047Z,3.40
2022-12-31T00:38:40.419Z,3.77
2022-12-31T00:42:02.649Z,1.63
2022-12-31T00:45:24.142Z,2.60
2022-12-31T00:48:47.528Z,2.33
2022-12-31T00:52:09.201Z,1.60
2022-12-31T00:55:31.927Z,4.67
2022-12-31T00:58:53.732Z,1.73
2022-12-31T01:02:15.543Z,2.90
2022-12-31T01:05:39.561Z,2.35
2022-12-31T01:09:01.087Z,3.00
2022-12-31T01:12:23.033Z,3.05
2022-12-31T01:15:44.753Z,1.30
2022-12-31T01:19:09.310Z,2.23
2022-12-31T01:22:32.240Z,1.38
2022-12-31T01:25:54.043Z,3.07
2022-12-31T01:29:16.996Z,2.43
2022-12-31T01:32:38.667Z,1.73
2022-12-31T01:36:03.473Z,2.00
2022-12-31T01:39:26.292Z,2.15
2022-12-31T01:42:55.166Z,1.70
2022-12-31T01:46:28.197Z,1.20
2022-12-31T01:49:53.476Z,1.73
2022-12-31T01:53:17.544Z,1.13
2022-12-31T01:56:44.229Z,1.52
2022-12-31T02:00:07.802Z,1.73
2022-12-31T02:03:30.785Z,1.00
2022-12-31T02:06:57.268Z,1.05
2022-12-31T02:10:19.106Z,0.98
2022-12-31T02:13:42.122Z,0.93
2022-12-31T02:17:11.390Z,1.23
2022-12-31T02:21:19.457Z,1.23
2022-12-31T02:25:15.457Z,1.92
2022-12-31T02:29:06.389Z,2.38
2022-12-31T02:32:38.205Z,1.17
2022-12-31T02:36:04.040Z,2.40
2022-12-31T02:39:25.913Z,1.45
2022-12-31T02:42:53.295Z,1.17
2022-12-31T02:46:28.003Z,0.98
2022-12-31T02:50:02.218Z,1.23
2022-12-31T02:53:42.986Z,0.98
2022-12-31T02:57:12.810Z,2.63
2022-12-31T03:00:59.627Z,0.75
2022-12-31T03:04:36.272Z,1.00
2022-12-31T03:07:59.215Z,1.13
2022-12-31T03:11:34.766Z,1.05
2022-12-31T03:14:56.365Z,1.00
2022-12-31T03:18:39.911Z,3.80
2022-12-31T03:22:18.773Z,1.05
2022-12-31T03:25:41.788Z,1.23
2022-12-31T03:29:04.263Z,2.25
2022-12-31T03:32:25.541Z,1.15
2022-12-31T03:35:48.856Z,1.15
2022-12-31T03:39:10.739Z,1.08
2022-12-31T03:42:33.932Z,0.88
2022-12-31T03:45:58.667Z,1.17
2022-12-31T03:49:21.164Z,2.03
2022-12-31T03:52:42.942Z,1.08
2022-12-31T03:56:05.000Z,1.77
2022-12-31T03:59:27.779Z,0.90
2022-12-31T04:02:50.050Z,0.50
2022-12-31T04:06:11.559Z,0.88
2022-12-31T04:09:33.356Z,0.50
2022-12-31T04:12:54.832Z,1.63
2022-12-31T04:16:17.537Z,0.85
2022-12-31T04:19:39.178Z,0.60
2022-12-31T04:23:00.459Z,0.50
2022-12-31T04:26:22.223Z,0.70
2022-12-31T04:29:43.546Z,0.82
2022-12-31T04:33:06.078Z,0.68
2022-12-31T04:36:28.219Z,0.60
2022-12-31T04:39:49.758Z,0.68
2022-12-31T04:43:11.456Z,2.25
2022-12-31T04:46:34.707Z,1.60
2022-12-31T04:49:57.905Z,0.63
2022-12-31T04:53:19.751Z,0.80
2022-12-31T04:56:41.545Z,1.50
2022-12-31T05:00:03.918Z,1.38
2022-12-31T05:03:27.394Z,1.83
2022-12-31T05:06:50.399Z,0.77
2022-12-31T05:10:12.172Z,0.57
2022-12-31T05:13:33.996Z,0.60
2022-12-31T05:16:56.022Z,0.73
2022-12-31T05:20:17.814Z,0.65
2022-12-31T05:23:40.811Z,1.30
2022-12-31T05:27:02.667Z,0.57
2022-12-31T05:30:24.884Z,0.60
2022-12-31T05:33:46.594Z,1.45
2022-12-31T05:37:08.064Z,1.08
2022-12-31T05:40:32.236Z,0.68
2022-12-31T05:43:54.162Z,0.50
2022-12-31T05:47:16.795Z,0.70
2022-12-31T05:50:38.287Z,0.57
2022-12-31T05:54:00.135Z,0.50
2022-12-31T05:57:23.033Z,0.40
2022-12-31T06:00:46.101Z,0.68
2022-12-31T06:04:07.533Z,0.30
2022-12-31T06:07:29.275Z,1.08
2022-12-31T06:10:50.960Z,1.85
2022-12-31T06:14:14.560Z,0.55
2022-12-31T06:17:36.247Z,0.65
2022-12-31T06:20:59.053Z,0.50
2022-12-31T06:24:20.686Z,0.40
2022-12-31T06:27:42.424Z,0.70
2022-12-31T06:31:07.590Z,0.75
2022-12-31T06:34:29.317Z,2.20
2022-12-31T06:37:52.615Z,1.85
2022-12-31T06:41:15.822Z,0.80
2022-12-31T06:44:37.401Z,0.65
2022-12-31T06:47:59.968Z,0.60
2022-12-31T06:51:22.935Z,1.60
2022-12-31T06:54:45.401Z,0.60
2022-12-31T06:58:07.819Z,3.03
2022-12-31T07:01:38.240Z,0.50
2022-12-31T07:05:10.979Z,2.20
2022-12-31T07:08:42.734Z,0.50
2022-12-31T07:12:13.393Z,0.60
2022-12-31T07:15:48.206Z,1.33
2022-12-31T07:19:21.615Z,0.70
2022-12-31T07:22:45.928Z,1.40
2022-12-31T07:26:17.159Z,1.00
2022-12-31T07:29:52.544Z,1.15
2022-12-31T07:33:26.312Z,1.60
2022-12-31T07:37:02.440Z,0.60
2022-12-31T07:40:37.687Z,0.52
2022-12-31T07:44:08.806Z,0.70
2022-12-31T07:47:30.922Z,0.80
2022-12-31T07:50:54.786Z,1.23
2022-12-31T07:54:16.463Z,1.88
2022-12-31T07:57:44.362Z,1.77
2022-12-31T08:01:06.968Z,1.48
2022-12-31T08:04:33.639Z,1.52
2022-12-31T08:08:01.541Z,1.40
2022-12-31T08:11:33.649Z,3.50
2022-12-31T08:14:57.393Z,3.53
2022-12-31T08:18:19.313Z,2.22
2022-12-31T08:21:50.000Z,2.83
2022-12-31T08:25:23.680Z,2.40
2022-12-31T08:28:58.935Z,3.10
2022-12-31T08:32:25.003Z,4.60
2022-12-31T08:35:57.661Z,2.50
2022-12-31T08:39:32.055Z,1.15
2022-12-31T08:43:07.679Z,0.88
2022-12-31T08:46:34.603Z,3.08
2022-12-31T08:49:58.485Z,3.58
2022-12-31T08:53:20.852Z,1.83
2022-12-31T08:56:50.717Z,1.75
2022-12-31T09:00:15.145Z,0.90
2022-12-31T09:03:54.338Z,3.33
2022-12-31T09:07:22.917Z,0.68
2022-12-31T09:10:52.786Z,0.60
2022-12-31T09:14:24.759Z,0.82
2022-12-31T09:17:48.094Z,2.00
2022-12-31T09:21:11.784Z,1.00
2022-12-31T09:24:35.505Z,1.10
2022-12-31T09:28:09.287Z,1.10
2022-12-31T09:31:37.435Z,2.08
2022-12-31T09:35:07.480Z,2.72
2022-12-31T09:38:33.295Z,2.55
2022-12-31T09:42:19.371Z,1.40
2022-12-31T09:46:01.073Z,0.85
2022-12-31T09:49:55.409Z,0.85
2022-12-31T09:53:32.811Z,2.15
2022-12-31T09:57:15.256Z,1.00
2022-12-31T10:00:42.715Z,4.78
2022-12-31T10:04:46.710Z,1.30
2022-12-31T10:08:17.369Z,3.15
2022-12-31T10:11:58.904Z,1.30
2022-12-31T10:15:41.507Z,3.65
2022-12-31T10:19:32.582Z,2.78
2022-12-31T10:23:27.401Z,2.63
2022-12-31T10:26:58.776Z,2.08
2022-12-31T10:30:23.034Z,1.83
2022-12-31T10:33:56.244Z,2.65
2022-12-31T10:37:19.387Z,1.60
2022-12-31T10:41:07.124Z,3.28
2022-12-31T10:45:03.659Z,2.45
2022-12-31T10:49:03.426Z,4.00
2022-12-31T10:53:13.955Z,14.75
2022-12-31T10:57:07.866Z,18.02
2022-12-31T11:00:31.875Z,3.47
2022-12-31T11:04:34.859Z,8.93
2022-12-31T11:08:12.141Z,2.35
2022-12-31T11:11:46.056Z,2.67
2022-12-31T11:15:39.492Z,1.92
2022-12-31T11:19:08.232Z,1.30
2022-12-31T11:22:44.649Z,1.42
2022-12-31T11:26:19.692Z,1.30
2022-12-31T11:29:56.013Z,2.17
2022-12-31T11:33:34.076Z,1.88
2022-12-31T11:37:19.405Z,2.67
2022-12-31T11:40:44.485Z,2.28
2022-12-31T11:44:19.310Z,2.65
2022-12-31T11:48:28.975Z,1.20
2022-12-31T11:51:53.220Z,1.30
2022-12-31T11:55:27.277Z,2.17
2022-12-31T11:58:52.162Z,1.50
2022-12-31T12:02:26.118Z,2.10
2022-12-31T12:05:47.813Z,2.03
2022-12-31T12:09:15.919Z,1.75
2022-12-31T12:12:40.961Z,1.33
2022-12-31T12:16:07.395Z,2.40
2022-12-31T12:19:33.248Z,2.13
2022-12-31T12:22:58.344Z,1.17
2022-12-31T12:26:28.367Z,8.80
2022-12-31T12:29:50.125Z,1.92
2022-12-31T12:33:18.541Z,2.28
2022-12-31T12:36:48.076Z,3.33
2022-12-31T12:40:21.919Z,2.50
2022-12-31T12:43:43.374Z,2.00
2022-12-31T12:47:07.620Z,2.60
2022-12-31T12:50:40.268Z,2.13
2022-12-31T12:54:12.858Z,1.30
2022-12-31T12:57:45.374Z,1.90
2022-12-31T13:01:17.036Z,1.35
2022-12-31T13:04:52.561Z,1.58
2022-12-31T13:08:28.236Z,1.90
2022-12-31T13:12:07.685Z,4.18
2022-12-31T13:15:35.145Z,2.05
2022-12-31T13:19:04.089Z,1.60
2022-12-31T13:22:31.166Z,3.58
2022-12-31T13:26:05.124Z,3.08
2022-12-31T13:29:31.736Z,3.58
2022-12-31T13:33:00.411Z,3.10
2022-12-31T13:36:24.722Z,3.85
2022-12-31T13:39:48.097Z,3.47
2022-12-31T13:43:17.770Z,2.70
2022-12-31T13:46:47.784Z,2.85
2022-12-31T13:50:18.408Z,2.58
2022-12-31T13:53:48.724Z,3.33
2022-12-31T13:57:19.571Z,4.50
2022-12-31T14:00:45.866Z,2.55
2022-12-31T14:04:16.788Z,4.30
2022-12-31T14:07:45.910Z,1.92
2022-12-31T14:11:19.738Z,2.10
2022-12-31T14:14:50.835Z,2.45
2022-12-31T14:18:20.413Z,6.35
2022-12-31T14:21:48.502Z,8.23
2022-12-31T14:25:21.009Z,5.72
2022-12-31T14:28:48.647Z,3.65
2022-12-31T14:32:55.398Z,2.40
2022-12-31T14:36:37.610Z,2.70
2022-12-31T14:40:10.358Z,2.55
2022-12-31T14:43:53.978Z,4.88
2022-12-31T14:47:28.171Z,5.65
2022-12-31T14:50:50.278Z,5.60
2022-12-31T14:54:29.128Z,3.00
2022-12-31T14:58:26.469Z,1.48
2022-12-31T15:01:34.330Z,3.75
2022-12-31T15:05:12.548Z,8.88
2022-12-31T15:08:50.331Z,9.48
2022-12-31T15:12:43.116Z,12.15
2022-12-31T15:16:23.474Z,9.73
2022-12-31T15:20:16.646Z,8.68
2022-12-31T15:23:42.233Z,9.98
2022-12-31T15:27:06.300Z,9.43
2022-12-31T15:30:36.476Z,11.18
2022-12-31T15:34:02.371Z,7.32
2022-12-31T15:37:33.504Z,6.78
2022-12-31T15:40:55.569Z,3.10
2022-12-31T15:44:24.626Z,2.75
2022-12-31T15:47:49.834Z,2.42
2022-12-31T15:51:18.407Z,7.82
2022-12-31T15:54:43.834Z,17.50
2022-12-31T15:58:08.165Z,6.65
2022-12-31T16:01:33.782Z,5.75
2022-12-31T16:04:56.616Z,12.55
2022-12-31T16:08:22.539Z,8.10
2022-12-31T16:11:44.549Z,7.88
2022-12-31T16:15:07.023Z,3.75
2022-12-31T16:18:38.524Z,3.50
2022-12-31T16:22:04.106Z,4.63
2022-12-31T16:25:31.464Z,6.63
2022-12-31T16:28:55.230Z,4.05
2022-12-31T16:32:19.151Z,7.32
2022-12-31T16:35:40.709Z,36.50
2022-12-31T16:39:23.471Z,10.13
2022-12-31T16:42:47.558Z,10.85
2022-12-31T16:46:12.640Z,6.57
2022-12-31T16:49:38.831Z,3.65
2022-12-31T16:53:04.226Z,4.03
2022-12-31T16:56:33.604Z,4.22
2022-12-31T17:00:01.606Z,5.82
2022-12-31T17:03:25.640Z,5.10
2022-12-31T17:06:48.247Z,8.25
2022-12-31T17:10:19.455Z,21.85
2022-12-31T17:13:41.219Z,6.05
2022-12-31T17:17:07.552Z,6.22
2022-12-31T17:20:30.886Z,4.38
2022-12-31T17:23:56.213Z,11.05
2022-12-31T17:27:18.481Z,6.10
2022-12-31T17:30:41.327Z,6.60
2022-12-31T17:34:33.708Z,6.40
2022-12-31T17:37:55.782Z,7.32
2022-12-31T17:41:24.095Z,16.08
2022-12-31T17:44:45.914Z,8.02
2022-12-31T17:48:07.471Z,8.65
2022-12-31T17:51:30.767Z,10.00
2022-12-31T17:54:52.626Z,10.23
2022-12-31T17:58:19.831Z,8.23
2022-12-31T18:01:43.719Z,6.43
2022-12-31T18:05:14.722Z,5.72
2022-12-31T18:08:37.774Z,6.45
2022-12-31T18:12:01.704Z,6.65
2022-12-31T18:15:25.070Z,10.48
2022-12-31T18:18:46.790Z,12.32
2022-12-31T18:22:08.397Z,8.23
2022-12-31T18:25:31.403Z,9.10
2022-12-31T18:28:53.959Z,7.88
2022-12-31T18:32:21.139Z,7.57
2022-12-31T18:36:08.156Z,7.45
2022-12-31T18:39:24.671Z,5.72
2022-12-31T18:42:47.436Z,5.32
2022-12-31T18:46:12.157Z,5.65
2022-12-31T18:49:33.725Z,6.45
2022-12-31T18:52:55.515Z,5.22
2022-12-31T18:56:19.439Z,7.10
2022-12-31T18:59:42.839Z,5.20
2022-12-31T19:03:05.579Z,6.65
2022-12-31T19:06:27.537Z,7.13
2022-12-31T19:09:53.000Z,6.25
2022-12-31T19:13:19.824Z,6.97
2022-12-31T19:16:43.039Z,11.65
2022-12-31T19:20:05.605Z,6.40
2022-12-31T19:23:27.136Z,5.05
2022-12-31T19:26:48.993Z,6.32
2022-12-31T19:30:20.360Z,4.43
2022-12-31T19:33:44.065Z,13.25
2022-12-31T19:37:05.696Z,6.88
2022-12-31T19:40:30.325Z,8.13
2022-12-31T19:43:51.801Z,8.40
2022-12-31T19:47:14.158Z,8.27
2022-12-31T19:50:36.929Z,5.68
2022-12-31T19:54:00.932Z,7.97
2022-12-31T19:57:22.625Z,6.28
2022-12-31T20:00:47.955Z,6.47
2022-12-31T20:04:12.834Z,38.65
2022-12-31T20:07:36.005Z,14.82
2022-12-31T20:10:59.037Z,8.43
2022-12-31T20:14:20.446Z,61.65
2022-12-31T20:17:42.159Z,14.25
2022-12-31T20:21:03.988Z,23.13
2022-12-31T20:24:27.170Z,11.10
2022-12-31T20:27:48.736Z,8.38
2022-12-31T20:31:12.011Z,9.38
2022-12-31T20:34:33.544Z,8.65
2022-12-31T20:37:55.396Z,7.25
2022-12-31T20:41:19.902Z,9.38
2022-12-31T20:44:41.478Z,10.18
2022-12-31T20:48:02.560Z,16.40
2022-12-31T20:51:25.436Z,19.05
2022-12-31T20:54:47.343Z,9.73
2022-12-31T20:58:10.742Z,7.30
2022-12-31T21:02:11.218Z,8.55
2022-12-31T21:05:14.707Z,7.38
2022-12-31T21:08:37.090Z,8.50
2022-12-31T21:12:15.994Z,8.50
2022-12-31T21:15:38.916Z,7.53
2022-12-31T21:19:01.552Z,6.85
2022-12-31T21:22:24.184Z,10.70
2022-12-31T21:25:46.708Z,7.90
2022-12-31T21:29:08.164Z,10.35
2022-12-31T21:32:31.187Z,8.50
2022-12-31T21:35:54.011Z,8.55
2022-12-31T21:39:16.559Z,7.47
2022-12-31T21:42:38.261Z,7.10
2022-12-31T21:46:04.470Z,6.22
2022-12-31T21:49:27.463Z,7.57
2022-12-31T21:52:49.159Z,7.28
2022-12-31T21:56:11.497Z,6.63
2022-12-31T22:00:09.143Z,11.68
2022-12-31T22:03:32.241Z,6.88
2022-12-31T22:06:55.460Z,11.60
2022-12-31T22:10:17.464Z,13.38
2022-12-31T22:13:39.607Z,10.95
2022-12-31T22:17:00.995Z,7.28
2022-12-31T22:20:27.592Z,9.00
2022-12-31T22:23:53.236Z,8.27
2022-12-31T22:27:28.610Z,16.60
2022-12-31T22:30:51.399Z,11.88
2022-12-31T22:34:12.899Z,10.52
2022-12-31T22:41:19.590Z,10.55
2022-12-31T22:44:41.542Z,9.25
2022-12-31T22:48:02.799Z,8.75
2022-12-31T22:51:24.571Z,8.43
2022-12-31T22:54:46.182Z,8.15
2022-12-31T22:58:09.195Z,11.43
2022-12-31T23:01:31.006Z,5.68
2022-12-31T23:04:52.943Z,9.50
2022-12-31T23:08:34.500Z,16.52
2022-12-31T23:11:56.183Z,26.23
2022-12-31T23:15:36.459Z,30.65
2022-12-31T23:19:15.312Z,41.80
2022-12-31T23:22:54.079Z,30.85
2022-12-31T23:26:15.607Z,20.23
2022-12-31T23:29:45.655Z,29.05
2022-12-31T23:33:15.147Z,40.83
2022-12-31T23:36:36.847Z,20.15
2022-12-31T23:39:58.830Z,14.73
2022-12-31T23:43:23.166Z,36.90
2022-12-31T23:46:45.525Z,20.58
2022-12-31T23:50:09.771Z,17.92
2022-12-31T23:53:31.417Z,23.35
2022-12-31T23:56:53.241Z,23.48
